Accueil
METAR-TAF:

METAR-TAF

Aéroports :

Beauvechain, Belgique

Base aérienne de Beauvechain

latitude: 50-45N, longitude: 004-46E, altitude: 105 m

Observation

Le bulletin a été fait il y a 39 minutes, à 14:55 UTC
Vent 15 kt de ouest/sud-ouest
Température 24°C
Humidité 44%
Pression 1017 hPa
Visibilité 10 km ou plus
Quelques nuages à une hauteur de 4300 ft
Nuages épars à une hauteur de 24000 ft

METAR: EBBE 231455Z 24015KT 9999 FEW043 SCT240 24/11 Q1017 BLU BLU

Heure: 17:34 (15:34 UTC)

Prévision

Le bulletin a été fait il y a 3 heures et 53 minutes, à 11:41 UTC
Prévision valable du 23 à 13 UTC au 23 à 22 UTC
Vent 12 kt de ouest/sud-ouest
Visibilité 10 km ou plus
Quelques nuages à une hauteur de 4000 ft
Nuages épars à une hauteur de 25000 ft

TAF: EBBE 231141Z 2313/2322 25012KT 9999 FEW040 SCT250

Observations et prévisions météorologiques de plus de 4000 aéroports (messages METAR et TAF).

Les stations disponibles sont représentées par des disques jaunes et rouges sur la carte.

Passer la souris dessus pour voir le nom de la station.

Cliquer dessus pour voir les observations et prévisions météorologiques.

Pour changer de carte: cliquez sur les boutons verts avec une croix noire pour zoomer, sur le bouton vert avec un tiret pour effectuer un zoom arrière, ou sur les flèches vertes pour les cartes adjacentes.


METAR-TAF: